createdAt,value
2019-06-10T00:01:08.627Z,99.90
2019-06-10T00:03:39.002Z,99.90
2019-06-10T00:06:11.527Z,99.90
2019-06-10T00:08:41.590Z,99.90
2019-06-10T00:11:12.025Z,99.90
2019-06-10T00:13:42.834Z,99.90
2019-06-10T00:16:13.451Z,99.90
2019-06-10T00:18:45.762Z,99.90
2019-06-10T00:21:16.659Z,99.90
2019-06-10T00:23:47.104Z,99.90
2019-06-10T00:26:18.251Z,99.90
2019-06-10T00:28:50.941Z,99.90
2019-06-10T00:31:20.949Z,99.90
2019-06-10T00:33:52.059Z,99.90
2019-06-10T00:36:22.959Z,99.90
2019-06-10T00:38:53.363Z,99.90
2019-06-10T00:41:24.552Z,99.90
2019-06-10T00:43:55.692Z,99.90
2019-06-10T00:46:26.698Z,99.90
2019-06-10T00:48:57.605Z,99.90
2019-06-10T00:51:28.295Z,99.90
2019-06-10T00:54:02.018Z,99.90
2019-06-10T00:56:31.184Z,99.90
2019-06-10T00:59:03.733Z,99.90
2019-06-10T01:01:34.240Z,99.90
2019-06-10T01:04:05.468Z,99.90
2019-06-10T01:06:38.906Z,99.90
2019-06-10T01:09:12.749Z,99.90
2019-06-10T01:11:42.366Z,99.90
2019-06-10T01:14:15.321Z,99.90
2019-06-10T01:16:45.564Z,99.90
2019-06-10T01:19:16.169Z,99.90
2019-06-10T01:21:46.994Z,99.90
2019-06-10T01:24:18.003Z,99.90
2019-06-10T01:26:50.564Z,99.90
2019-06-10T01:29:21.433Z,99.90
2019-06-10T01:31:51.939Z,99.90
2019-06-10T01:34:23.339Z,99.90
2019-06-10T01:36:54.042Z,99.90
2019-06-10T01:39:25.146Z,99.90
2019-06-10T01:42:15.914Z,99.90
2019-06-10T01:44:47.044Z,99.90
2019-06-10T01:47:17.830Z,99.90
2019-06-10T01:49:48.242Z,99.90
2019-06-10T01:52:21.082Z,99.90
2019-06-10T01:54:51.579Z,99.90
2019-06-10T01:57:22.626Z,99.90
2019-06-10T01:59:53.617Z,99.90
2019-06-10T02:02:25.171Z,99.90
2019-06-10T02:04:55.964Z,99.90
2019-06-10T02:07:26.358Z,99.90
2019-06-10T02:09:56.963Z,99.90
2019-06-10T02:12:28.049Z,99.90
2019-06-10T02:14:58.446Z,99.90
2019-06-10T02:17:31.419Z,99.90
2019-06-10T02:20:01.571Z,99.90
2019-06-10T02:22:32.432Z,99.90
2019-06-10T02:25:03.638Z,99.90
2019-06-10T02:27:34.369Z,99.90
2019-06-10T02:30:14.879Z,99.90
2019-06-10T02:32:38.229Z,99.90
2019-06-10T02:35:15.498Z,99.90
2019-06-10T02:37:44.409Z,99.90
2019-06-10T02:40:18.400Z,99.90
2019-06-10T02:42:47.272Z,99.90
2019-06-10T02:45:23.710Z,99.90
2019-06-10T02:47:53.317Z,99.90
2019-06-10T02:50:44.862Z,99.90
2019-06-10T02:53:16.970Z,99.90
2019-06-10T02:55:47.614Z,99.90
2019-06-10T02:58:19.102Z,99.90
2019-06-10T03:00:50.390Z,99.90
2019-06-10T03:03:31.643Z,99.90
2019-06-10T03:05:53.836Z,99.90
2019-06-10T03:08:28.678Z,99.90
2019-06-10T03:10:56.794Z,99.90
2019-06-10T03:13:28.152Z,99.90
2019-06-10T03:16:20.474Z,99.90
2019-06-10T03:18:52.521Z,99.90
2019-06-10T03:21:25.679Z,99.90
2019-06-10T03:23:56.294Z,99.90
2019-06-10T03:26:27.661Z,99.90
2019-06-10T03:28:58.093Z,99.90
2019-06-10T03:31:40.168Z,99.90
2019-06-10T03:34:04.500Z,99.90
2019-06-10T03:36:32.727Z,99.90
2019-06-10T03:39:03.798Z,99.90
2019-06-10T03:41:34.207Z,99.90
2019-06-10T03:44:05.310Z,99.90
2019-06-10T03:46:36.235Z,99.90
2019-06-10T03:49:06.734Z,99.90
2019-06-10T03:51:37.216Z,99.90
2019-06-10T03:54:07.630Z,99.90
2019-06-10T03:56:37.930Z,99.90
2019-06-10T03:59:12.204Z,99.90
2019-06-10T04:01:42.876Z,99.90
2019-06-10T04:04:13.698Z,99.90
2019-06-10T04:06:44.488Z,99.90
2019-06-10T04:09:14.895Z,99.90
2019-06-10T04:11:45.418Z,99.90
2019-06-10T04:14:15.895Z,99.90
2019-06-10T04:16:46.346Z,99.90
2019-06-10T04:19:17.613Z,99.90
2019-06-10T04:21:48.190Z,99.90
2019-06-10T04:24:20.316Z,99.90
2019-06-10T04:26:52.145Z,99.90
2019-06-10T04:29:24.272Z,99.90
2019-06-10T04:31:54.740Z,99.90
2019-06-10T04:34:28.234Z,99.90
2019-06-10T04:36:57.248Z,99.90
2019-06-10T04:39:29.010Z,99.90
2019-06-10T04:41:59.606Z,99.90
2019-06-10T04:44:29.916Z,99.90
2019-06-10T04:47:02.532Z,99.90
2019-06-10T04:49:32.820Z,99.90
2019-06-10T04:52:03.414Z,99.90
2019-06-10T04:54:35.378Z,99.90
2019-06-10T04:57:05.762Z,99.90
2019-06-10T04:59:36.272Z,99.90
2019-06-10T05:02:06.667Z,99.90
2019-06-10T05:04:37.126Z,99.90
2019-06-10T05:07:07.513Z,99.90
2019-06-10T05:09:37.861Z,99.90
2019-06-10T05:12:08.440Z,99.90
2019-06-10T05:14:38.950Z,99.90
2019-06-10T05:17:09.334Z,99.90
2019-06-10T05:19:39.846Z,99.90
2019-06-10T05:22:12.257Z,99.90
2019-06-10T05:24:42.513Z,99.90
2019-06-10T05:27:12.972Z,99.90
2019-06-10T05:29:43.646Z,99.90
2019-06-10T05:32:14.118Z,99.90
2019-06-10T05:34:44.606Z,99.90
2019-06-10T05:37:15.007Z,99.90
2019-06-10T05:39:45.490Z,99.90
2019-06-10T05:42:15.902Z,99.90
2019-06-10T05:44:46.214Z,99.90
2019-06-10T05:47:16.621Z,99.90
2019-06-10T05:49:47.087Z,99.90
2019-06-10T05:52:17.606Z,99.90
2019-06-10T05:54:48.087Z,99.90
2019-06-10T05:57:18.458Z,99.90
2019-06-10T05:59:48.962Z,99.90
2019-06-10T06:02:19.374Z,99.90
2019-06-10T06:04:49.862Z,99.90
2019-06-10T06:07:22.253Z,99.90
2019-06-10T06:09:53.260Z,99.90
2019-06-10T06:12:25.475Z,99.90
2019-06-10T06:14:55.870Z,99.90
2019-06-10T06:17:26.357Z,99.90
2019-06-10T06:20:02.566Z,99.90
2019-06-10T06:22:33.678Z,99.90
2019-06-10T06:25:05.961Z,99.90
2019-06-10T06:27:37.070Z,99.90
2019-06-10T06:30:14.738Z,99.90
2019-06-10T06:32:43.550Z,99.90
2019-06-10T06:35:14.167Z,99.90
2019-06-10T06:37:44.578Z,99.90
2019-06-10T06:40:15.563Z,99.90
2019-06-10T06:42:45.942Z,99.90
2019-06-10T06:45:17.955Z,99.90
2019-06-10T06:47:48.330Z,99.90
2019-06-10T06:50:22.537Z,99.90
2019-06-10T06:53:18.734Z,99.90
2019-06-10T06:55:23.490Z,99.90
2019-06-10T06:57:54.010Z,99.90
2019-06-10T07:00:49.225Z,99.90
2019-06-10T07:03:06.343Z,99.90
2019-06-10T07:05:38.873Z,99.90
2019-06-10T07:08:09.646Z,99.90
2019-06-10T07:10:41.440Z,99.80
2019-06-10T07:13:12.890Z,99.30
2019-06-10T07:15:46.953Z,99.90
2019-06-10T07:18:17.098Z,99.90
2019-06-10T07:20:47.570Z,99.90
2019-06-10T07:23:18.354Z,99.90
2019-06-10T07:25:48.738Z,99.80
2019-06-10T07:28:19.118Z,99.80
2019-06-10T07:30:52.714Z,99.60
2019-06-10T07:33:22.692Z,99.90
2019-06-10T07:35:56.407Z,99.40
2019-06-10T07:38:26.256Z,99.90
2019-06-10T07:40:57.978Z,99.90
2019-06-10T07:43:28.438Z,99.90
2019-06-10T07:45:58.767Z,99.20
2019-06-10T07:48:29.248Z,99.10
2019-06-10T07:51:02.582Z,99.70
2019-06-10T07:53:33.097Z,99.90
2019-06-10T07:56:05.062Z,98.60
2019-06-10T07:58:36.848Z,99.60
2019-06-10T08:01:07.704Z,99.90
2019-06-10T08:03:39.759Z,99.00
2019-06-10T08:06:12.703Z,95.80
2019-06-10T08:08:45.285Z,96.60
2019-06-10T08:11:14.450Z,97.40
2019-06-10T08:13:46.308Z,97.10
2019-06-10T08:16:16.870Z,96.20
2019-06-10T08:19:15.932Z,95.00
2019-06-10T08:21:19.560Z,96.80
2019-06-10T08:23:49.938Z,93.80
2019-06-10T08:26:22.982Z,93.60
2019-06-10T08:28:52.994Z,92.60
2019-06-10T08:31:24.062Z,90.60
2019-06-10T08:33:54.440Z,92.30
2019-06-10T08:36:24.925Z,95.90
2019-06-10T08:38:55.302Z,92.70
2019-06-10T08:41:25.630Z,94.20
2019-06-10T08:43:56.068Z,91.70
2019-06-10T08:46:26.495Z,95.60
2019-06-10T08:48:56.875Z,92.00
2019-06-10T08:51:27.323Z,90.90
2019-06-10T08:53:58.131Z,87.50
2019-06-10T08:56:28.562Z,85.90
2019-06-10T08:58:59.155Z,80.50
2019-06-10T09:01:29.661Z,72.60
2019-06-10T09:04:02.906Z,71.60
2019-06-10T09:06:32.955Z,78.40
2019-06-10T09:09:05.085Z,72.20
2019-06-10T09:11:35.458Z,69.00
2019-06-10T09:14:06.295Z,66.60
2019-06-10T09:16:36.786Z,71.20
2019-06-10T09:19:07.132Z,74.10
2019-06-10T09:21:39.146Z,81.60
2019-06-10T09:24:09.836Z,77.50
2019-06-10T09:26:44.541Z,80.30
2019-06-10T09:29:13.441Z,77.60
2019-06-10T09:31:48.882Z,79.10
2019-06-10T09:34:16.495Z,80.90
2019-06-10T09:36:50.101Z,79.20
2019-06-10T09:39:19.074Z,80.90
2019-06-10T09:41:56.629Z,78.60
2019-06-10T09:44:22.927Z,80.30
2019-06-10T09:47:00.249Z,79.90
2019-06-10T09:49:32.807Z,75.80
2019-06-10T09:52:03.310Z,73.60
2019-06-10T09:54:37.132Z,76.00
2019-06-10T09:57:07.533Z,78.90
2019-06-10T09:59:37.886Z,78.30
2019-06-10T10:02:08.401Z,76.20
2019-06-10T10:04:39.163Z,75.20
2019-06-10T10:07:12.037Z,71.40
2019-06-10T10:09:46.604Z,75.60
2019-06-10T10:12:14.434Z,76.10
2019-06-10T10:14:48.044Z,73.00
2019-06-10T10:17:17.027Z,75.20
2019-06-10T10:19:49.715Z,74.30
2019-06-10T10:22:22.760Z,81.10
2019-06-10T10:24:55.259Z,85.50
2019-06-10T10:27:24.399Z,86.90
2019-06-10T10:29:57.165Z,87.30
2019-06-10T10:32:26.854Z,86.80
2019-06-10T10:34:57.216Z,88.10
2019-06-10T10:37:27.586Z,89.00
2019-06-10T10:39:58.753Z,88.10
2019-06-10T10:42:41.742Z,90.00
2019-06-10T10:45:02.815Z,86.90
2019-06-10T10:47:33.632Z,89.70
2019-06-10T10:50:04.714Z,87.20
2019-06-10T10:52:35.110Z,82.30
2019-06-10T10:55:06.982Z,83.70
2019-06-10T10:57:37.515Z,87.30
2019-06-10T11:00:08.314Z,86.60
2019-06-10T11:02:38.910Z,90.10
2019-06-10T11:05:12.668Z,90.90
2019-06-10T11:07:44.362Z,90.40
2019-06-10T11:10:14.810Z,89.90
2019-06-10T11:12:47.029Z,89.30
2019-06-10T11:15:23.056Z,89.20
2019-06-10T11:17:55.123Z,90.80
2019-06-10T11:20:24.930Z,93.00
2019-06-10T11:22:55.311Z,93.60
2019-06-10T11:25:25.713Z,92.70
2019-06-10T11:27:57.311Z,93.70
2019-06-10T11:30:28.275Z,93.20
2019-06-10T11:32:59.704Z,93.60
2019-06-10T11:35:30.203Z,94.50
2019-06-10T11:38:03.254Z,94.70
2019-06-10T11:40:34.093Z,95.90
2019-06-10T11:43:04.800Z,96.00
2019-06-10T11:45:35.302Z,96.90
2019-06-10T11:48:06.107Z,96.20
2019-06-10T11:50:36.512Z,95.70
2019-06-10T11:53:06.915Z,95.20
2019-06-10T11:55:37.414Z,95.00
2019-06-10T11:58:08.119Z,95.90
2019-06-10T12:00:38.622Z,95.70
2019-06-10T12:03:09.003Z,96.00
2019-06-10T12:05:39.406Z,97.00
2019-06-10T12:08:12.795Z,96.90
2019-06-10T12:10:43.419Z,97.50
2019-06-10T12:13:14.083Z,97.20
2019-06-10T12:16:20.726Z,95.70
2019-06-10T12:18:16.759Z,95.30
2019-06-10T12:20:47.302Z,94.50
2019-06-10T12:23:17.710Z,95.50
2019-06-10T12:25:49.716Z,96.10
2019-06-10T12:28:20.167Z,96.80
2019-06-10T12:30:55.461Z,96.70
2019-06-10T12:33:25.368Z,95.50
2019-06-10T12:35:58.539Z,96.30
2019-06-10T12:38:27.007Z,97.00
2019-06-10T12:40:58.949Z,98.50
2019-06-10T12:43:29.699Z,98.10
2019-06-10T12:46:00.826Z,98.50
2019-06-10T12:48:34.062Z,99.20
2019-06-10T12:51:08.767Z,99.90
2019-06-10T12:53:36.863Z,99.90
2019-06-10T12:56:10.911Z,99.90
2019-06-10T12:58:39.299Z,99.90
2019-06-10T13:01:09.791Z,99.90
2019-06-10T13:03:40.270Z,99.90
2019-06-10T13:06:13.083Z,99.90
2019-06-10T13:08:43.967Z,99.10
2019-06-10T13:11:15.704Z,99.90
2019-06-10T13:13:46.109Z,99.90
2019-06-10T13:16:16.486Z,99.90
2019-06-10T13:18:46.886Z,99.90
2019-06-10T13:21:17.937Z,99.90
2019-06-10T13:23:48.614Z,99.90
2019-06-10T13:26:19.027Z,99.90
2019-06-10T13:28:49.558Z,99.90
2019-06-10T13:31:19.903Z,99.90
2019-06-10T13:33:52.748Z,99.90
2019-06-10T13:36:25.948Z,99.90
2019-06-10T13:38:54.818Z,99.90
2019-06-10T13:41:25.285Z,99.90
2019-06-10T13:43:55.656Z,99.90
2019-06-10T13:46:26.142Z,99.90
2019-06-10T13:48:56.646Z,99.90
2019-06-10T13:51:27.042Z,99.90
2019-06-10T13:53:58.677Z,99.90
2019-06-10T13:56:43.105Z,99.30
2019-06-10T13:59:04.087Z,99.90
2019-06-10T14:01:35.082Z,99.90
2019-06-10T14:04:12.801Z,99.90
2019-06-10T14:06:46.097Z,99.90
2019-06-10T14:09:12.575Z,99.60
2019-06-10T14:11:42.402Z,99.90
2019-06-10T14:14:17.599Z,99.90
2019-06-10T14:16:45.466Z,99.90
2019-06-10T14:19:16.407Z,99.90
2019-06-10T14:21:47.086Z,99.90
2019-06-10T14:24:17.492Z,99.90
2019-06-10T14:26:47.996Z,98.90
2019-06-10T14:29:18.546Z,98.60
2019-06-10T14:31:49.020Z,99.20
2019-06-10T14:34:22.315Z,98.20
2019-06-10T14:36:52.502Z,97.90
2019-06-10T14:39:23.059Z,97.80
2019-06-10T14:41:53.446Z,96.70
2019-06-10T14:44:23.950Z,97.50
2019-06-10T14:46:54.355Z,99.10
2019-06-10T14:49:24.782Z,98.20
2019-06-10T14:51:55.158Z,95.70
2019-06-10T14:54:25.613Z,95.80
2019-06-10T14:56:57.430Z,96.70
2019-06-10T14:59:28.055Z,98.10
2019-06-10T15:01:58.728Z,98.50
2019-06-10T15:04:29.602Z,97.70
2019-06-10T15:07:02.694Z,98.70
2019-06-10T15:09:33.458Z,99.20
2019-06-10T15:12:04.439Z,99.60
2019-06-10T15:14:34.778Z,98.90
2019-06-10T15:17:05.707Z,98.10
2019-06-10T15:19:39.019Z,98.10
2019-06-10T15:22:12.208Z,97.80
2019-06-10T15:24:42.767Z,99.20
2019-06-10T15:27:23.098Z,99.30
2019-06-10T15:29:45.619Z,98.40
2019-06-10T15:32:27.733Z,98.50
2019-06-10T15:34:48.178Z,99.80
2019-06-10T15:37:20.568Z,98.70
2019-06-10T15:39:52.701Z,98.70
2019-06-10T15:42:22.990Z,97.20
2019-06-10T15:44:55.955Z,97.50
2019-06-10T15:47:26.714Z,97.50
2019-06-10T15:49:57.323Z,96.70
2019-06-10T15:52:27.714Z,98.00
2019-06-10T15:54:58.047Z,97.60
2019-06-10T15:57:39.193Z,93.30
2019-06-10T16:00:02.964Z,93.00
2019-06-10T16:02:33.507Z,93.20
2019-06-10T16:05:04.427Z,93.20
2019-06-10T16:07:34.821Z,94.40
2019-06-10T16:10:06.219Z,94.30
2019-06-10T16:12:36.618Z,94.50
2019-06-10T16:15:07.618Z,95.30
2019-06-10T16:17:38.266Z,95.70
2019-06-10T16:20:09.186Z,95.50
2019-06-10T16:22:39.679Z,94.70
2019-06-10T16:25:12.546Z,95.10
2019-06-10T16:27:48.455Z,95.00
2019-06-10T16:30:14.644Z,95.00
2019-06-10T16:32:46.489Z,95.10
2019-06-10T16:35:18.771Z,95.40
2019-06-10T16:37:49.269Z,94.40
2019-06-10T16:40:19.829Z,92.70
2019-06-10T16:42:50.216Z,91.90
2019-06-10T16:45:25.501Z,92.30
2019-06-10T16:47:53.146Z,93.60
2019-06-10T16:50:25.702Z,93.40
2019-06-10T16:52:55.722Z,93.30
2019-06-10T16:55:27.250Z,92.30
2019-06-10T16:57:59.714Z,92.70
2019-06-10T17:00:31.478Z,92.60
2019-06-10T17:03:01.927Z,92.50
2019-06-10T17:05:33.180Z,92.40
2019-06-10T17:08:03.642Z,92.80
2019-06-10T17:10:34.536Z,92.00
2019-06-10T17:13:07.626Z,92.30
2019-06-10T17:15:38.048Z,93.30
2019-06-10T17:18:08.423Z,92.80
2019-06-10T17:20:38.942Z,92.80
2019-06-10T17:23:26.392Z,92.70
2019-06-10T17:25:56.279Z,93.00
2019-06-10T17:28:31.321Z,93.10
2019-06-10T17:31:03.445Z,94.20
2019-06-10T17:33:35.826Z,93.90
2019-06-10T17:36:05.351Z,94.40
2019-06-10T17:38:35.813Z,95.40
2019-06-10T17:41:06.193Z,95.40
2019-06-10T17:43:36.780Z,94.90
2019-06-10T17:46:07.156Z,94.70
2019-06-10T17:48:44.050Z,94.80
2019-06-10T17:51:14.567Z,95.00
2019-06-10T17:53:44.918Z,95.30
2019-06-10T17:56:15.316Z,95.30
2019-06-10T17:58:54.236Z,95.20
2019-06-10T18:01:17.704Z,95.10
2019-06-10T18:03:48.262Z,95.40
2019-06-10T18:06:18.771Z,95.50
2019-06-10T18:08:49.218Z,95.20
2019-06-10T18:11:19.615Z,95.60
2019-06-10T18:13:50.102Z,95.00
2019-06-10T18:16:22.800Z,95.40
2019-06-10T18:18:52.647Z,95.60
2019-06-10T18:21:24.326Z,95.90
2019-06-10T18:23:54.881Z,95.80
2019-06-10T18:26:26.695Z,96.20
2019-06-10T18:29:04.901Z,95.80
2019-06-10T18:31:29.509Z,96.30
2019-06-10T18:34:02.362Z,96.10
2019-06-10T18:36:33.105Z,96.40
2019-06-10T18:39:05.710Z,96.70
2019-06-10T18:41:37.379Z,96.90
2019-06-10T18:44:19.820Z,96.90
2019-06-10T18:46:40.225Z,97.50
2019-06-10T18:49:13.351Z,97.10
2019-06-10T18:51:43.755Z,97.30
2019-06-10T18:54:14.210Z,97.50
2019-06-10T18:56:44.733Z,97.20
2019-06-10T18:59:20.644Z,97.20
2019-06-10T19:01:47.150Z,97.00
2019-06-10T19:04:17.682Z,97.00
2019-06-10T19:06:48.370Z,97.40
2019-06-10T19:09:19.053Z,97.60
2019-06-10T19:11:49.810Z,97.50
2019-06-10T19:14:20.319Z,97.20
2019-06-10T19:16:52.410Z,97.00
2019-06-10T19:19:23.111Z,97.80
2019-06-10T19:22:05.529Z,97.40
2019-06-10T19:24:25.504Z,97.50
2019-06-10T19:26:58.882Z,97.60
2019-06-10T19:29:36.009Z,97.70
2019-06-10T19:32:00.094Z,97.80
2019-06-10T19:34:31.265Z,98.20
2019-06-10T19:37:02.588Z,97.70
2019-06-10T19:39:38.350Z,98.00
2019-06-10T19:42:05.130Z,97.70
2019-06-10T19:44:36.983Z,98.30
2019-06-10T19:47:07.510Z,97.80
2019-06-10T19:49:38.645Z,98.20
2019-06-10T19:52:09.143Z,97.90
2019-06-10T19:54:39.623Z,97.80
2019-06-10T19:57:10.016Z,98.20
2019-06-10T20:00:02.763Z,97.80
2019-06-10T20:02:12.646Z,98.20
2019-06-10T20:04:45.265Z,97.80
2019-06-10T20:07:15.498Z,97.80
2019-06-10T20:09:46.419Z,97.80
2019-06-10T20:12:16.814Z,97.70
2019-06-10T20:14:47.892Z,97.80
2019-06-10T20:17:18.362Z,97.60
2019-06-10T20:19:48.778Z,97.30
2019-06-10T20:22:19.293Z,97.20
2019-06-10T20:24:52.329Z,97.30
2019-06-10T20:27:22.651Z,97.00
2019-06-10T20:30:04.548Z,97.20
2019-06-10T20:32:25.478Z,97.20
2019-06-10T20:34:55.910Z,97.50
2019-06-10T20:37:26.458Z,97.30
2019-06-10T20:39:56.779Z,97.40
2019-06-10T20:42:27.336Z,97.50
2019-06-10T20:44:57.736Z,97.50
2019-06-10T20:47:28.245Z,97.50
2019-06-10T20:49:58.715Z,97.60
2019-06-10T20:52:29.092Z,97.60
2019-06-10T20:55:02.391Z,97.70
2019-06-10T20:57:33.070Z,97.60
2019-06-10T21:00:18.753Z,97.70
2019-06-10T21:02:36.126Z,97.70
2019-06-10T21:05:10.199Z,97.70
2019-06-10T21:07:39.646Z,97.70
2019-06-10T21:10:12.880Z,97.70
2019-06-10T21:12:44.914Z,97.70
2019-06-10T21:15:15.098Z,97.80
2019-06-10T21:17:46.458Z,97.60
2019-06-10T21:20:17.411Z,97.60
2019-06-10T21:22:48.958Z,98.00
2019-06-10T21:25:19.598Z,97.80
2019-06-10T21:27:52.740Z,97.60
2019-06-10T21:30:34.801Z,97.40
2019-06-10T21:32:54.782Z,97.50
2019-06-10T21:35:25.462Z,97.60
2019-06-10T21:37:56.030Z,97.50
2019-06-10T21:40:26.564Z,97.40
2019-06-10T21:42:56.987Z,97.30
2019-06-10T21:45:27.540Z,97.50
2019-06-10T21:47:58.058Z,97.60
2019-06-10T21:50:28.634Z,97.50
2019-06-10T21:52:59.059Z,97.60
2019-06-10T21:55:29.462Z,97.20
2019-06-10T21:57:59.950Z,97.40
2019-06-10T22:00:52.084Z,97.30
2019-06-10T22:03:09.204Z,97.40
2019-06-10T22:05:42.452Z,97.50
2019-06-10T22:08:12.581Z,97.50
2019-06-10T22:10:44.193Z,97.40
2019-06-10T22:13:14.820Z,97.50
2019-06-10T22:15:46.370Z,97.50
2019-06-10T22:18:16.861Z,97.50
2019-06-10T22:20:48.815Z,97.60
2019-06-10T22:23:19.370Z,97.60
2019-06-10T22:25:51.362Z,97.60
2019-06-10T22:28:22.260Z,97.80
2019-06-10T22:31:04.165Z,97.60
2019-06-10T22:33:24.742Z,97.70
2019-06-10T22:35:57.153Z,98.10
2019-06-10T22:38:27.196Z,98.00
2019-06-10T22:40:57.570Z,98.10
2019-06-10T22:43:28.199Z,97.90
2019-06-10T22:45:59.894Z,98.10
2019-06-10T22:48:33.120Z,98.30
2019-06-10T22:51:02.702Z,98.40
2019-06-10T22:53:33.459Z,98.40
2019-06-10T22:56:04.678Z,98.50
2019-06-10T22:58:35.278Z,98.40
2019-06-10T23:01:05.754Z,98.40
2019-06-10T23:03:36.195Z,98.50
2019-06-10T23:06:06.666Z,98.70
2019-06-10T23:08:37.136Z,98.70
2019-06-10T23:11:07.530Z,98.60
2019-06-10T23:13:37.927Z,98.60
2019-06-10T23:16:08.346Z,98.60
2019-06-10T23:18:38.819Z,98.60
2019-06-10T23:21:09.270Z,98.80
2019-06-10T23:23:39.747Z,99.10
2019-06-10T23:26:10.162Z,99.00
2019-06-10T23:28:42.082Z,98.80
2019-06-10T23:31:12.866Z,98.90
2019-06-10T23:33:43.222Z,99.10
2019-06-10T23:36:13.539Z,99.00
2019-06-10T23:38:43.936Z,99.20
2019-06-10T23:41:14.895Z,99.40
2019-06-10T23:43:45.290Z,99.60
2019-06-10T23:46:15.671Z,99.70
2019-06-10T23:48:46.074Z,99.90
2019-06-10T23:51:16.543Z,99.90
2019-06-10T23:53:47.046Z,99.90
2019-06-10T23:56:17.498Z,99.90
2019-06-10T23:58:47.909Z,99.90
